Terminal Aerodrome Forecast
Issued by NWS

Home | Current Version | Previous Version | Graphics & Text | Print | Product List | Glossary On
Versions: 1 2 3 4 5 6 7 8 9 10 11 12 13 14 15 16 17 18 19 20 21 22 23
994
FTUS43 KFGF 042341
TAFBJI
TAF
KBJI 042341Z 0500/0524 26010KT P6SM -SN OVC007
     FM050500 25007KT P6SM BKN003
     FM051100 17004KT P6SM BKN003
     FM051600 12007KT P6SM BKN008
     FM051700 12007KT P6SM BKN010
     FM051900 12007KT P6SM BKN008
     FM052100 12007KT P6SM OVC003=

USA.gov is the U.S. government's official web portal to all federal, state and local government web resources and services.